sensor_id;sensor_type;location;lat;lon;timestamp;P1;durP1;ratioP1;P2;durP2;ratioP2
24145;SDS011;12308;50.948;4.706;2022-10-17T00:01:09;24.27;;;15.15;;
24145;SDS011;12308;50.948;4.706;2022-10-17T00:03:36;23.40;;;14.77;;
24145;SDS011;12308;50.948;4.706;2022-10-17T00:06:09;26.98;;;14.63;;
24145;SDS011;12308;50.948;4.706;2022-10-17T00:08:36;20.85;;;14.23;;
24145;SDS011;12308;50.948;4.706;2022-10-17T00:11:04;27.45;;;15.60;;
24145;SDS011;12308;50.948;4.706;2022-10-17T00:13:32;22.77;;;14.90;;
24145;SDS011;12308;50.948;4.706;2022-10-17T00:15:58;31.85;;;16.02;;
24145;SDS011;12308;50.948;4.706;2022-10-17T00:18:24;23.60;;;15.13;;
24145;SDS011;12308;50.948;4.706;2022-10-17T00:20:50;22.83;;;15.75;;
24145;SDS011;12308;50.948;4.706;2022-10-17T00:23:16;23.45;;;15.23;;
24145;SDS011;12308;50.948;4.706;2022-10-17T00:25:42;30.50;;;16.48;;
24145;SDS011;12308;50.948;4.706;2022-10-17T00:28:08;25.73;;;15.88;;
24145;SDS011;12308;50.948;4.706;2022-10-17T00:30:35;23.73;;;15.98;;
24145;SDS011;12308;50.948;4.706;2022-10-17T00:33:01;28.75;;;15.48;;
24145;SDS011;12308;50.948;4.706;2022-10-17T00:35:26;31.65;;;15.55;;
24145;SDS011;12308;50.948;4.706;2022-10-17T00:37:52;22.45;;;15.13;;
24145;SDS011;12308;50.948;4.706;2022-10-17T00:40:18;28.73;;;15.18;;
24145;SDS011;12308;50.948;4.706;2022-10-17T00:42:43;30.40;;;15.63;;
24145;SDS011;12308;50.948;4.706;2022-10-17T00:45:20;25.80;;;15.45;;
24145;SDS011;12308;50.948;4.706;2022-10-17T00:47:55;29.98;;;15.90;;
24145;SDS011;12308;50.948;4.706;2022-10-17T00:50:24;25.55;;;15.77;;
24145;SDS011;12308;50.948;4.706;2022-10-17T00:52:51;30.27;;;17.27;;
24145;SDS011;12308;50.948;4.706;2022-10-17T00:55:26;31.58;;;15.05;;
24145;SDS011;12308;50.948;4.706;2022-10-17T00:57:55;30.75;;;15.32;;
24145;SDS011;12308;50.948;4.706;2022-10-17T01:00:21;28.90;;;15.95;;
24145;SDS011;12308;50.948;4.706;2022-10-17T01:02:48;22.17;;;14.82;;
24145;SDS011;12308;50.948;4.706;2022-10-17T01:05:14;27.70;;;14.90;;
24145;SDS011;12308;50.948;4.706;2022-10-17T01:07:40;26.45;;;14.90;;
24145;SDS011;12308;50.948;4.706;2022-10-17T01:10:07;26.92;;;15.48;;
24145;SDS011;12308;50.948;4.706;2022-10-17T01:12:50;30.83;;;15.02;;
24145;SDS011;12308;50.948;4.706;2022-10-17T01:25:59;26.60;;;15.13;;
24145;SDS011;12308;50.948;4.706;2022-10-17T01:34:24;22.45;;;13.82;;
24145;SDS011;12308;50.948;4.706;2022-10-17T01:40:16;22.27;;;14.75;;
24145;SDS011;12308;50.948;4.706;2022-10-17T01:45:31;23.13;;;14.32;;
24145;SDS011;12308;50.948;4.706;2022-10-17T01:48:07;35.65;;;15.68;;
24145;SDS011;12308;50.948;4.706;2022-10-17T01:50:40;24.08;;;14.57;;
24145;SDS011;12308;50.948;4.706;2022-10-17T01:53:13;22.13;;;14.77;;
24145;SDS011;12308;50.948;4.706;2022-10-17T01:55:44;24.15;;;15.35;;
24145;SDS011;12308;50.948;4.706;2022-10-17T01:58:13;22.88;;;14.30;;
24145;SDS011;12308;50.948;4.706;2022-10-17T02:00:44;25.40;;;14.18;;
24145;SDS011;12308;50.948;4.706;2022-10-17T02:03:13;24.73;;;15.32;;
24145;SDS011;12308;50.948;4.706;2022-10-17T02:05:43;25.85;;;14.68;;
24145;SDS011;12308;50.948;4.706;2022-10-17T02:08:10;35.78;;;15.88;;
24145;SDS011;12308;50.948;4.706;2022-10-17T02:10:56;28.50;;;15.77;;
24145;SDS011;12308;50.948;4.706;2022-10-17T02:13:48;24.95;;;15.95;;
24145;SDS011;12308;50.948;4.706;2022-10-17T02:16:34;29.70;;;16.42;;
24145;SDS011;12308;50.948;4.706;2022-10-17T02:22:11;28.20;;;17.27;;
24145;SDS011;12308;50.948;4.706;2022-10-17T02:30:39;31.08;;;16.30;;
24145;SDS011;12308;50.948;4.706;2022-10-17T02:35:44;28.00;;;15.73;;
24145;SDS011;12308;50.948;4.706;2022-10-17T02:40:40;25.55;;;14.18;;
24145;SDS011;12308;50.948;4.706;2022-10-17T02:43:08;23.73;;;13.88;;
24145;SDS011;12308;50.948;4.706;2022-10-17T02:45:34;25.05;;;13.98;;
24145;SDS011;12308;50.948;4.706;2022-10-17T02:48:02;28.52;;;14.38;;
24145;SDS011;12308;50.948;4.706;2022-10-17T02:53:28;24.15;;;14.32;;
24145;SDS011;12308;50.948;4.706;2022-10-17T02:56:00;25.17;;;14.48;;
24145;SDS011;12308;50.948;4.706;2022-10-17T02:58:30;23.05;;;13.63;;
24145;SDS011;12308;50.948;4.706;2022-10-17T03:00:59;21.50;;;13.48;;
24145;SDS011;12308;50.948;4.706;2022-10-17T03:03:26;23.45;;;13.82;;
24145;SDS011;12308;50.948;4.706;2022-10-17T03:05:54;21.70;;;13.85;;
24145;SDS011;12308;50.948;4.706;2022-10-17T03:08:20;26.40;;;13.85;;
24145;SDS011;12308;50.948;4.706;2022-10-17T03:10:46;23.83;;;13.73;;
24145;SDS011;12308;50.948;4.706;2022-10-17T03:13:12;24.67;;;14.23;;
24145;SDS011;12308;50.948;4.706;2022-10-17T03:15:38;20.48;;;13.55;;
24145;SDS011;12308;50.948;4.706;2022-10-17T03:18:04;22.55;;;14.15;;
24145;SDS011;12308;50.948;4.706;2022-10-17T03:20:30;20.88;;;13.82;;
24145;SDS011;12308;50.948;4.706;2022-10-17T03:22:56;21.27;;;13.18;;
24145;SDS011;12308;50.948;4.706;2022-10-17T03:25:21;25.63;;;13.20;;
24145;SDS011;12308;50.948;4.706;2022-10-17T03:27:47;28.67;;;13.07;;
24145;SDS011;12308;50.948;4.706;2022-10-17T03:30:13;22.40;;;13.90;;
24145;SDS011;12308;50.948;4.706;2022-10-17T03:32:38;21.48;;;13.80;;
24145;SDS011;12308;50.948;4.706;2022-10-17T03:35:04;20.05;;;11.77;;
24145;SDS011;12308;50.948;4.706;2022-10-17T03:37:30;26.92;;;12.40;;
24145;SDS011;12308;50.948;4.706;2022-10-17T03:39:55;19.75;;;12.48;;
24145;SDS011;12308;50.948;4.706;2022-10-17T03:42:22;20.95;;;12.77;;
24145;SDS011;12308;50.948;4.706;2022-10-17T03:44:47;27.02;;;13.50;;
24145;SDS011;12308;50.948;4.706;2022-10-17T03:47:13;22.15;;;12.88;;
24145;SDS011;12308;50.948;4.706;2022-10-17T03:49:39;32.08;;;13.23;;
24145;SDS011;12308;50.948;4.706;2022-10-17T03:52:04;19.65;;;12.93;;
24145;SDS011;12308;50.948;4.706;2022-10-17T03:54:30;19.90;;;13.32;;
24145;SDS011;12308;50.948;4.706;2022-10-17T03:56:55;22.30;;;13.68;;
24145;SDS011;12308;50.948;4.706;2022-10-17T03:59:21;21.63;;;13.13;;
24145;SDS011;12308;50.948;4.706;2022-10-17T04:01:47;22.45;;;12.88;;
24145;SDS011;12308;50.948;4.706;2022-10-17T04:04:12;20.35;;;13.18;;
24145;SDS011;12308;50.948;4.706;2022-10-17T04:06:38;18.08;;;13.25;;
24145;SDS011;12308;50.948;4.706;2022-10-17T04:09:04;22.67;;;12.75;;
24145;SDS011;12308;50.948;4.706;2022-10-17T04:11:31;16.73;;;12.43;;
24145;SDS011;12308;50.948;4.706;2022-10-17T04:13:57;23.60;;;12.45;;
24145;SDS011;12308;50.948;4.706;2022-10-17T04:16:23;22.05;;;12.88;;
24145;SDS011;12308;50.948;4.706;2022-10-17T04:18:53;22.17;;;13.13;;
24145;SDS011;12308;50.948;4.706;2022-10-17T04:21:20;18.60;;;12.50;;
24145;SDS011;12308;50.948;4.706;2022-10-17T04:23:47;22.42;;;12.60;;
24145;SDS011;12308;50.948;4.706;2022-10-17T04:26:16;18.58;;;12.18;;
24145;SDS011;12308;50.948;4.706;2022-10-17T04:28:41;18.67;;;13.02;;
24145;SDS011;12308;50.948;4.706;2022-10-17T04:31:08;22.65;;;13.15;;
24145;SDS011;12308;50.948;4.706;2022-10-17T04:33:37;19.33;;;12.70;;
24145;SDS011;12308;50.948;4.706;2022-10-17T04:36:03;18.95;;;12.18;;
24145;SDS011;12308;50.948;4.706;2022-10-17T04:38:31;20.50;;;12.88;;
24145;SDS011;12308;50.948;4.706;2022-10-17T04:40:58;23.35;;;12.88;;
24145;SDS011;12308;50.948;4.706;2022-10-17T04:43:27;27.98;;;12.55;;
24145;SDS011;12308;50.948;4.706;2022-10-17T04:45:53;20.27;;;12.30;;
24145;SDS011;12308;50.948;4.706;2022-10-17T04:48:18;24.83;;;13.05;;
24145;SDS011;12308;50.948;4.706;2022-10-17T04:50:57;22.67;;;12.73;;
24145;SDS011;12308;50.948;4.706;2022-10-17T04:53:25;25.03;;;13.33;;
24145;SDS011;12308;50.948;4.706;2022-10-17T04:55:51;18.58;;;12.23;;
24145;SDS011;12308;50.948;4.706;2022-10-17T04:58:17;25.50;;;13.25;;
24145;SDS011;12308;50.948;4.706;2022-10-17T05:00:43;22.40;;;12.52;;
24145;SDS011;12308;50.948;4.706;2022-10-17T05:03:09;22.77;;;12.80;;
24145;SDS011;12308;50.948;4.706;2022-10-17T05:05:36;20.50;;;12.15;;
24145;SDS011;12308;50.948;4.706;2022-10-17T05:08:06;18.95;;;12.77;;
24145;SDS011;12308;50.948;4.706;2022-10-17T05:10:36;21.67;;;12.68;;
24145;SDS011;12308;50.948;4.706;2022-10-17T05:13:02;27.58;;;12.95;;
24145;SDS011;12308;50.948;4.706;2022-10-17T05:15:28;23.10;;;13.63;;
24145;SDS011;12308;50.948;4.706;2022-10-17T05:17:54;22.35;;;12.40;;
24145;SDS011;12308;50.948;4.706;2022-10-17T05:20:21;19.60;;;11.88;;
24145;SDS011;12308;50.948;4.706;2022-10-17T05:22:47;23.92;;;13.90;;
24145;SDS011;12308;50.948;4.706;2022-10-17T05:25:12;25.27;;;13.02;;
24145;SDS011;12308;50.948;4.706;2022-10-17T05:27:38;22.70;;;13.23;;
24145;SDS011;12308;50.948;4.706;2022-10-17T05:30:04;20.85;;;12.43;;
24145;SDS011;12308;50.948;4.706;2022-10-17T05:32:30;20.50;;;12.95;;
24145;SDS011;12308;50.948;4.706;2022-10-17T05:34:55;22.17;;;12.98;;
24145;SDS011;12308;50.948;4.706;2022-10-17T05:37:21;21.13;;;12.60;;
24145;SDS011;12308;50.948;4.706;2022-10-17T05:39:47;22.83;;;12.32;;
24145;SDS011;12308;50.948;4.706;2022-10-17T05:42:12;19.88;;;12.73;;
24145;SDS011;12308;50.948;4.706;2022-10-17T05:44:38;16.92;;;11.80;;
24145;SDS011;12308;50.948;4.706;2022-10-17T05:47:05;20.63;;;12.80;;
24145;SDS011;12308;50.948;4.706;2022-10-17T05:49:31;18.88;;;12.63;;
24145;SDS011;12308;50.948;4.706;2022-10-17T05:51:57;17.38;;;11.43;;
24145;SDS011;12308;50.948;4.706;2022-10-17T05:54:22;20.92;;;12.18;;
24145;SDS011;12308;50.948;4.706;2022-10-17T05:56:52;22.77;;;11.27;;
24145;SDS011;12308;50.948;4.706;2022-10-17T05:59:18;15.47;;;11.87;;
24145;SDS011;12308;50.948;4.706;2022-10-17T06:01:44;19.00;;;11.73;;
24145;SDS011;12308;50.948;4.706;2022-10-17T06:04:10;19.15;;;11.52;;
24145;SDS011;12308;50.948;4.706;2022-10-17T06:06:36;23.42;;;12.55;;
24145;SDS011;12308;50.948;4.706;2022-10-17T06:09:02;18.40;;;11.05;;
24145;SDS011;12308;50.948;4.706;2022-10-17T06:11:28;22.63;;;12.00;;
24145;SDS011;12308;50.948;4.706;2022-10-17T06:13:54;22.80;;;11.35;;
24145;SDS011;12308;50.948;4.706;2022-10-17T06:16:20;17.77;;;11.85;;
24145;SDS011;12308;50.948;4.706;2022-10-17T06:18:46;17.55;;;11.43;;
24145;SDS011;12308;50.948;4.706;2022-10-17T06:21:13;22.42;;;11.52;;
24145;SDS011;12308;50.948;4.706;2022-10-17T06:23:42;24.05;;;11.95;;
24145;SDS011;12308;50.948;4.706;2022-10-17T06:26:07;16.85;;;11.02;;
24145;SDS011;12308;50.948;4.706;2022-10-17T06:28:34;15.85;;;10.75;;
24145;SDS011;12308;50.948;4.706;2022-10-17T06:31:06;21.00;;;11.43;;
24145;SDS011;12308;50.948;4.706;2022-10-17T06:33:33;21.60;;;11.18;;
24145;SDS011;12308;50.948;4.706;2022-10-17T06:35:59;24.90;;;11.23;;
24145;SDS011;12308;50.948;4.706;2022-10-17T06:38:25;20.67;;;11.15;;
24145;SDS011;12308;50.948;4.706;2022-10-17T06:40:51;15.25;;;10.48;;
24145;SDS011;12308;50.948;4.706;2022-10-17T06:43:18;27.02;;;11.63;;
24145;SDS011;12308;50.948;4.706;2022-10-17T06:45:44;22.23;;;11.38;;
24145;SDS011;12308;50.948;4.706;2022-10-17T06:48:11;20.77;;;11.90;;
24145;SDS011;12308;50.948;4.706;2022-10-17T06:50:37;20.48;;;10.13;;
24145;SDS011;12308;50.948;4.706;2022-10-17T06:53:02;16.00;;;9.68;;
24145;SDS011;12308;50.948;4.706;2022-10-17T06:55:29;21.02;;;9.38;;
24145;SDS011;12308;50.948;4.706;2022-10-17T06:57:56;13.13;;;9.50;;
24145;SDS011;12308;50.948;4.706;2022-10-17T07:00:21;16.35;;;9.77;;
24145;SDS011;12308;50.948;4.706;2022-10-17T07:02:48;15.07;;;9.70;;
24145;SDS011;12308;50.948;4.706;2022-10-17T07:05:14;12.02;;;8.38;;
24145;SDS011;12308;50.948;4.706;2022-10-17T07:07:40;13.90;;;8.95;;
24145;SDS011;12308;50.948;4.706;2022-10-17T07:10:05;17.65;;;8.73;;
24145;SDS011;12308;50.948;4.706;2022-10-17T07:12:32;12.23;;;8.70;;
24145;SDS011;12308;50.948;4.706;2022-10-17T07:14:59;18.65;;;8.93;;
24145;SDS011;12308;50.948;4.706;2022-10-17T07:17:31;12.85;;;8.07;;
24145;SDS011;12308;50.948;4.706;2022-10-17T07:19:56;15.15;;;8.57;;
24145;SDS011;12308;50.948;4.706;2022-10-17T07:22:22;20.75;;;8.23;;
24145;SDS011;12308;50.948;4.706;2022-10-17T07:24:48;24.02;;;8.65;;
24145;SDS011;12308;50.948;4.706;2022-10-17T07:27:14;13.90;;;8.07;;
24145;SDS011;12308;50.948;4.706;2022-10-17T07:29:39;12.32;;;8.30;;
24145;SDS011;12308;50.948;4.706;2022-10-17T07:32:05;10.98;;;7.53;;
24145;SDS011;12308;50.948;4.706;2022-10-17T07:34:35;16.30;;;7.53;;
24145;SDS011;12308;50.948;4.706;2022-10-17T07:37:01;10.13;;;7.40;;
24145;SDS011;12308;50.948;4.706;2022-10-17T07:39:28;15.95;;;7.70;;
24145;SDS011;12308;50.948;4.706;2022-10-17T07:41:53;14.90;;;7.38;;
24145;SDS011;12308;50.948;4.706;2022-10-17T07:44:19;17.23;;;8.27;;
24145;SDS011;12308;50.948;4.706;2022-10-17T07:46:45;14.30;;;7.70;;
24145;SDS011;12308;50.948;4.706;2022-10-17T07:49:10;18.20;;;7.45;;
24145;SDS011;12308;50.948;4.706;2022-10-17T07:51:36;21.05;;;8.18;;
24145;SDS011;12308;50.948;4.706;2022-10-17T07:54:03;12.55;;;7.72;;
24145;SDS011;12308;50.948;4.706;2022-10-17T07:56:30;21.60;;;8.68;;
24145;SDS011;12308;50.948;4.706;2022-10-17T07:58:55;19.25;;;8.18;;
24145;SDS011;12308;50.948;4.706;2022-10-17T08:01:21;21.13;;;7.97;;
24145;SDS011;12308;50.948;4.706;2022-10-17T08:03:47;14.73;;;7.95;;
24145;SDS011;12308;50.948;4.706;2022-10-17T08:06:13;12.85;;;7.88;;
24145;SDS011;12308;50.948;4.706;2022-10-17T08:08:39;13.25;;;7.82;;
24145;SDS011;12308;50.948;4.706;2022-10-17T08:11:07;13.82;;;8.13;;
24145;SDS011;12308;50.948;4.706;2022-10-17T08:13:34;14.60;;;8.68;;
24145;SDS011;12308;50.948;4.706;2022-10-17T08:16:01;15.55;;;8.27;;
24145;SDS011;12308;50.948;4.706;2022-10-17T08:18:28;16.52;;;9.00;;
24145;SDS011;12308;50.948;4.706;2022-10-17T08:20:54;15.50;;;8.18;;
24145;SDS011;12308;50.948;4.706;2022-10-17T08:23:22;17.25;;;8.20;;
24145;SDS011;12308;50.948;4.706;2022-10-17T08:25:48;16.95;;;8.48;;
24145;SDS011;12308;50.948;4.706;2022-10-17T08:28:14;19.10;;;8.30;;
24145;SDS011;12308;50.948;4.706;2022-10-17T08:30:39;15.30;;;8.85;;
24145;SDS011;12308;50.948;4.706;2022-10-17T08:33:05;16.73;;;8.32;;
24145;SDS011;12308;50.948;4.706;2022-10-17T08:35:31;16.45;;;9.05;;
24145;SDS011;12308;50.948;4.706;2022-10-17T08:37:59;40.80;;;12.23;;
24145;SDS011;12308;50.948;4.706;2022-10-17T08:40:26;22.70;;;10.48;;
24145;SDS011;12308;50.948;4.706;2022-10-17T08:45:46;22.27;;;11.40;;
24145;SDS011;12308;50.948;4.706;2022-10-17T08:48:17;24.02;;;12.00;;
24145;SDS011;12308;50.948;4.706;2022-10-17T08:50:51;20.55;;;12.05;;
24145;SDS011;12308;50.948;4.706;2022-10-17T08:53:24;20.67;;;11.73;;
24145;SDS011;12308;50.948;4.706;2022-10-17T08:56:27;23.98;;;11.75;;
24145;SDS011;12308;50.948;4.706;2022-10-17T08:58:57;22.25;;;11.13;;
24145;SDS011;12308;50.948;4.706;2022-10-17T09:04:39;27.67;;;11.18;;
24145;SDS011;12308;50.948;4.706;2022-10-17T09:09:54;24.50;;;12.18;;
24145;SDS011;12308;50.948;4.706;2022-10-17T09:15:43;23.03;;;12.17;;
24145;SDS011;12308;50.948;4.706;2022-10-17T09:23:17;20.92;;;12.43;;
24145;SDS011;12308;50.948;4.706;2022-10-17T09:25:47;25.23;;;12.18;;
24145;SDS011;12308;50.948;4.706;2022-10-17T09:33:23;21.65;;;12.57;;
24145;SDS011;12308;50.948;4.706;2022-10-17T09:35:52;25.73;;;14.10;;
24145;SDS011;12308;50.948;4.706;2022-10-17T09:38:21;28.25;;;13.32;;
24145;SDS011;12308;50.948;4.706;2022-10-17T09:40:53;24.73;;;14.18;;
24145;SDS011;12308;50.948;4.706;2022-10-17T09:43:21;25.00;;;14.45;;
24145;SDS011;12308;50.948;4.706;2022-10-17T09:46:12;25.45;;;14.07;;
24145;SDS011;12308;50.948;4.706;2022-10-17T09:49:05;28.48;;;14.07;;
24145;SDS011;12308;50.948;4.706;2022-10-17T09:51:58;25.90;;;14.13;;
24145;SDS011;12308;50.948;4.706;2022-10-17T09:54:28;22.38;;;14.13;;
24145;SDS011;12308;50.948;4.706;2022-10-17T09:57:06;25.70;;;13.35;;
24145;SDS011;12308;50.948;4.706;2022-10-17T09:59:34;23.40;;;14.25;;
24145;SDS011;12308;50.948;4.706;2022-10-17T10:04:50;27.88;;;14.80;;
24145;SDS011;12308;50.948;4.706;2022-10-17T10:07:20;29.75;;;15.52;;
24145;SDS011;12308;50.948;4.706;2022-10-17T10:09:47;21.80;;;15.05;;
24145;SDS011;12308;50.948;4.706;2022-10-17T10:12:21;28.17;;;15.60;;
24145;SDS011;12308;50.948;4.706;2022-10-17T10:14:58;29.70;;;18.35;;
24145;SDS011;12308;50.948;4.706;2022-10-17T10:17:29;36.03;;;22.70;;
24145;SDS011;12308;50.948;4.706;2022-10-17T10:23:19;40.40;;;19.73;;
24145;SDS011;12308;50.948;4.706;2022-10-17T10:28:17;25.45;;;15.77;;
24145;SDS011;12308;50.948;4.706;2022-10-17T10:30:47;23.35;;;14.27;;
24145;SDS011;12308;50.948;4.706;2022-10-17T10:33:15;25.00;;;15.25;;
24145;SDS011;12308;50.948;4.706;2022-10-17T10:35:51;24.75;;;14.50;;
24145;SDS011;12308;50.948;4.706;2022-10-17T10:38:19;27.77;;;14.88;;
24145;SDS011;12308;50.948;4.706;2022-10-17T10:40:53;24.55;;;15.60;;
24145;SDS011;12308;50.948;4.706;2022-10-17T10:43:28;24.83;;;15.85;;
24145;SDS011;12308;50.948;4.706;2022-10-17T10:46:04;30.88;;;18.48;;
24145;SDS011;12308;50.948;4.706;2022-10-17T10:48:40;28.52;;;19.10;;
24145;SDS011;12308;50.948;4.706;2022-10-17T10:51:41;31.73;;;18.77;;
24145;SDS011;12308;50.948;4.706;2022-10-17T10:54:22;35.20;;;19.40;;
24145;SDS011;12308;50.948;4.706;2022-10-17T10:56:53;33.13;;;18.00;;
24145;SDS011;12308;50.948;4.706;2022-10-17T10:59:30;25.67;;;16.05;;
24145;SDS011;12308;50.948;4.706;2022-10-17T11:07:19;28.98;;;19.77;;
24145;SDS011;12308;50.948;4.706;2022-10-17T11:10:13;27.90;;;21.73;;
24145;SDS011;12308;50.948;4.706;2022-10-17T11:15:36;33.97;;;22.02;;
24145;SDS011;12308;50.948;4.706;2022-10-17T11:18:22;60.65;;;42.42;;
24145;SDS011;12308;50.948;4.706;2022-10-17T11:24:17;349.30;;;135.60;;
24145;SDS011;12308;50.948;4.706;2022-10-17T11:27:00;214.55;;;87.70;;
24145;SDS011;12308;50.948;4.706;2022-10-17T11:29:32;248.00;;;92.82;;
24145;SDS011;12308;50.948;4.706;2022-10-17T11:32:34;411.27;;;233.95;;
24145;SDS011;12308;50.948;4.706;2022-10-17T11:35:14;140.35;;;80.32;;
24145;SDS011;12308;50.948;4.706;2022-10-17T11:37:43;36.60;;;24.00;;
24145;SDS011;12308;50.948;4.706;2022-10-17T11:40:18;27.52;;;17.55;;
24145;SDS011;12308;50.948;4.706;2022-10-17T11:42:53;61.15;;;27.15;;
24145;SDS011;12308;50.948;4.706;2022-10-17T11:45:21;144.90;;;58.65;;
24145;SDS011;12308;50.948;4.706;2022-10-17T11:47:50;223.90;;;77.90;;
24145;SDS011;12308;50.948;4.706;2022-10-17T11:53:21;143.80;;;44.75;;
24145;SDS011;12308;50.948;4.706;2022-10-17T11:55:49;39.80;;;19.85;;
24145;SDS011;12308;50.948;4.706;2022-10-17T12:09:12;33.45;;;19.90;;
24145;SDS011;12308;50.948;4.706;2022-10-17T12:17:20;26.40;;;15.18;;
24145;SDS011;12308;50.948;4.706;2022-10-17T12:19:51;26.98;;;14.02;;
24145;SDS011;12308;50.948;4.706;2022-10-17T12:24:52;23.30;;;14.35;;
24145;SDS011;12308;50.948;4.706;2022-10-17T12:30:25;26.58;;;12.95;;
24145;SDS011;12308;50.948;4.706;2022-10-17T12:32:52;33.83;;;14.05;;
24145;SDS011;12308;50.948;4.706;2022-10-17T12:35:20;26.27;;;14.05;;
24145;SDS011;12308;50.948;4.706;2022-10-17T12:40:46;23.30;;;12.80;;
24145;SDS011;12308;50.948;4.706;2022-10-17T12:45:49;26.25;;;15.18;;
24145;SDS011;12308;50.948;4.706;2022-10-17T12:56:14;38.08;;;20.20;;
24145;SDS011;12308;50.948;4.706;2022-10-17T12:58:45;35.63;;;22.55;;
24145;SDS011;12308;50.948;4.706;2022-10-17T13:03:42;39.20;;;22.05;;
24145;SDS011;12308;50.948;4.706;2022-10-17T13:06:14;52.83;;;37.33;;
24145;SDS011;12308;50.948;4.706;2022-10-17T13:08:58;41.85;;;25.38;;
24145;SDS011;12308;50.948;4.706;2022-10-17T13:11:27;38.05;;;26.17;;
24145;SDS011;12308;50.948;4.706;2022-10-17T13:13:59;26.58;;;16.08;;
24145;SDS011;12308;50.948;4.706;2022-10-17T13:16:32;27.77;;;16.42;;
24145;SDS011;12308;50.948;4.706;2022-10-17T13:18:59;27.08;;;16.38;;
24145;SDS011;12308;50.948;4.706;2022-10-17T13:21:26;29.27;;;15.50;;
24145;SDS011;12308;50.948;4.706;2022-10-17T13:23:52;21.48;;;15.23;;
24145;SDS011;12308;50.948;4.706;2022-10-17T13:26:24;23.30;;;15.75;;
24145;SDS011;12308;50.948;4.706;2022-10-17T13:29:04;30.42;;;16.30;;
24145;SDS011;12308;50.948;4.706;2022-10-17T13:31:36;32.35;;;15.52;;
24145;SDS011;12308;50.948;4.706;2022-10-17T13:34:04;32.15;;;16.40;;
24145;SDS011;12308;50.948;4.706;2022-10-17T13:36:39;23.27;;;16.20;;
24145;SDS011;12308;50.948;4.706;2022-10-17T13:39:07;30.52;;;16.40;;
24145;SDS011;12308;50.948;4.706;2022-10-17T13:41:37;25.52;;;14.95;;
24145;SDS011;12308;50.948;4.706;2022-10-17T13:44:24;25.48;;;15.65;;
24145;SDS011;12308;50.948;4.706;2022-10-17T13:46:51;24.52;;;14.98;;
24145;SDS011;12308;50.948;4.706;2022-10-17T13:51:51;22.33;;;13.73;;
24145;SDS011;12308;50.948;4.706;2022-10-17T13:54:37;30.02;;;14.52;;
24145;SDS011;12308;50.948;4.706;2022-10-17T13:57:20;21.25;;;12.77;;
24145;SDS011;12308;50.948;4.706;2022-10-17T13:59:59;21.20;;;11.93;;
24145;SDS011;12308;50.948;4.706;2022-10-17T14:02:31;23.40;;;13.05;;
24145;SDS011;12308;50.948;4.706;2022-10-17T14:05:17;18.60;;;11.52;;
24145;SDS011;12308;50.948;4.706;2022-10-17T14:07:52;22.40;;;11.40;;
24145;SDS011;12308;50.948;4.706;2022-10-17T14:10:24;22.27;;;11.25;;
24145;SDS011;12308;50.948;4.706;2022-10-17T14:12:53;21.17;;;11.55;;
24145;SDS011;12308;50.948;4.706;2022-10-17T14:15:20;18.27;;;11.05;;
24145;SDS011;12308;50.948;4.706;2022-10-17T14:18:00;18.63;;;11.77;;
24145;SDS011;12308;50.948;4.706;2022-10-17T14:20:28;18.25;;;9.82;;
24145;SDS011;12308;50.948;4.706;2022-10-17T14:22:56;24.60;;;18.63;;
24145;SDS011;12308;50.948;4.706;2022-10-17T14:28:12;248.38;;;149.68;;
24145;SDS011;12308;50.948;4.706;2022-10-17T14:35:49;26.85;;;16.73;;
24145;SDS011;12308;50.948;4.706;2022-10-17T14:38:16;21.48;;;12.05;;
24145;SDS011;12308;50.948;4.706;2022-10-17T14:40:50;12.98;;;10.30;;
24145;SDS011;12308;50.948;4.706;2022-10-17T14:43:19;18.55;;;11.95;;
24145;SDS011;12308;50.948;4.706;2022-10-17T14:45:46;22.48;;;13.90;;
24145;SDS011;12308;50.948;4.706;2022-10-17T14:48:13;21.17;;;11.00;;
24145;SDS011;12308;50.948;4.706;2022-10-17T14:53:31;16.10;;;9.60;;
24145;SDS011;12308;50.948;4.706;2022-10-17T14:55:58;21.65;;;13.43;;
24145;SDS011;12308;50.948;4.706;2022-10-17T14:58:27;20.88;;;13.05;;
24145;SDS011;12308;50.948;4.706;2022-10-17T15:00:55;55.15;;;29.35;;
24145;SDS011;12308;50.948;4.706;2022-10-17T15:03:22;36.65;;;19.65;;
24145;SDS011;12308;50.948;4.706;2022-10-17T15:05:48;107.47;;;48.95;;
24145;SDS011;12308;50.948;4.706;2022-10-17T15:08:16;25.77;;;13.38;;
24145;SDS011;12308;50.948;4.706;2022-10-17T15:10:43;20.58;;;13.95;;
24145;SDS011;12308;50.948;4.706;2022-10-17T15:13:10;24.08;;;14.02;;
24145;SDS011;12308;50.948;4.706;2022-10-17T15:15:37;34.85;;;19.58;;
24145;SDS011;12308;50.948;4.706;2022-10-17T15:18:04;17.40;;;12.10;;
24145;SDS011;12308;50.948;4.706;2022-10-17T15:20:30;19.48;;;12.05;;
24145;SDS011;12308;50.948;4.706;2022-10-17T15:22:58;17.05;;;10.38;;
24145;SDS011;12308;50.948;4.706;2022-10-17T15:25:26;15.65;;;8.90;;
24145;SDS011;12308;50.948;4.706;2022-10-17T15:27:53;14.77;;;8.45;;
24145;SDS011;12308;50.948;4.706;2022-10-17T15:30:33;21.85;;;10.38;;
24145;SDS011;12308;50.948;4.706;2022-10-17T15:33:00;17.77;;;8.48;;
24145;SDS011;12308;50.948;4.706;2022-10-17T15:35:26;11.75;;;8.15;;
24145;SDS011;12308;50.948;4.706;2022-10-17T15:37:52;19.92;;;13.07;;
24145;SDS011;12308;50.948;4.706;2022-10-17T15:40:19;17.02;;;10.60;;
24145;SDS011;12308;50.948;4.706;2022-10-17T15:42:48;12.30;;;7.40;;
24145;SDS011;12308;50.948;4.706;2022-10-17T15:45:14;18.55;;;8.63;;
24145;SDS011;12308;50.948;4.706;2022-10-17T15:47:42;9.10;;;7.57;;
24145;SDS011;12308;50.948;4.706;2022-10-17T15:50:13;15.75;;;8.82;;
24145;SDS011;12308;50.948;4.706;2022-10-17T15:52:40;12.88;;;7.72;;
24145;SDS011;12308;50.948;4.706;2022-10-17T15:55:07;15.77;;;8.43;;
24145;SDS011;12308;50.948;4.706;2022-10-17T15:57:37;19.08;;;9.15;;
24145;SDS011;12308;50.948;4.706;2022-10-17T16:00:09;14.20;;;6.63;;
24145;SDS011;12308;50.948;4.706;2022-10-17T16:02:40;17.27;;;7.28;;
24145;SDS011;12308;50.948;4.706;2022-10-17T16:05:24;11.43;;;7.78;;
24145;SDS011;12308;50.948;4.706;2022-10-17T16:07:51;18.05;;;8.32;;
24145;SDS011;12308;50.948;4.706;2022-10-17T16:10:17;15.98;;;7.85;;
24145;SDS011;12308;50.948;4.706;2022-10-17T16:12:44;16.20;;;7.82;;
24145;SDS011;12308;50.948;4.706;2022-10-17T16:15:14;14.38;;;7.80;;
24145;SDS011;12308;50.948;4.706;2022-10-17T16:17:48;13.43;;;8.13;;
24145;SDS011;12308;50.948;4.706;2022-10-17T16:20:14;15.90;;;7.40;;
24145;SDS011;12308;50.948;4.706;2022-10-17T16:22:41;19.60;;;7.88;;
24145;SDS011;12308;50.948;4.706;2022-10-17T16:27:48;38.22;;;21.27;;
24145;SDS011;12308;50.948;4.706;2022-10-17T16:30:16;36.03;;;23.58;;
24145;SDS011;12308;50.948;4.706;2022-10-17T16:32:42;79.10;;;42.17;;
24145;SDS011;12308;50.948;4.706;2022-10-17T16:35:08;111.32;;;51.28;;
24145;SDS011;12308;50.948;4.706;2022-10-17T16:37:35;105.15;;;47.95;;
24145;SDS011;12308;50.948;4.706;2022-10-17T16:40:04;96.60;;;41.28;;
24145;SDS011;12308;50.948;4.706;2022-10-17T16:42:30;246.75;;;83.65;;
24145;SDS011;12308;50.948;4.706;2022-10-17T16:44:55;302.88;;;108.05;;
24145;SDS011;12308;50.948;4.706;2022-10-17T16:47:21;75.60;;;29.33;;
24145;SDS011;12308;50.948;4.706;2022-10-17T16:49:46;55.20;;;22.50;;
24145;SDS011;12308;50.948;4.706;2022-10-17T16:52:12;101.25;;;35.97;;
24145;SDS011;12308;50.948;4.706;2022-10-17T16:54:38;244.57;;;73.07;;